Time;durP1;ratioP1;P1;durP2;ratioP2;P2;SDS_P1;SDS_P2;PMS_P1;PMS_P2;Temp;Humidity;BMP_temperature;BMP_pressure;BME280_temperature;BME280_humidity;BME280_pressure;Samples;Min_cycle;Max_cycle;Signal;HPM_P1;HPM_P2
2023/06/28 00:01:00;;;;;;;5.57;2.55;;;14.20;99.90;;;;;;5123627;27;20035;-89
2023/06/28 00:03:27;;;;;;;7.72;2.38;;;14.20;99.90;;;;;;5124486;27;20379;-88
2023/06/28 00:05:54;;;;;;;8.18;2.20;;;14.20;99.90;;;;;;5140412;27;20042;-88
2023/06/28 00:08:21;;;;;;;6.55;2.10;;;14.20;99.90;;;;;;5156279;27;20049;-89
2023/06/28 00:10:49;;;;;;;8.55;2.60;;;14.20;99.90;;;;;;5124039;27;20034;-89
2023/06/28 00:13:17;;;;;;;7.35;2.33;;;14.10;99.90;;;;;;5157173;27;20031;-89
2023/06/28 00:15:44;;;;;;;7.95;2.30;;;14.20;99.90;;;;;;5140609;27;20035;-88
2023/06/28 00:18:11;;;;;;;8.73;2.15;;;14.10;99.90;;;;;;5157260;27;20034;-88
2023/06/28 00:20:40;;;;;;;6.80;2.25;;;14.10;99.90;;;;;;5140422;27;20507;-88
2023/06/28 00:23:08;;;;;;;5.55;2.17;;;14.10;99.90;;;;;;5124043;27;20034;-88
2023/06/28 00:25:36;;;;;;;7.18;2.30;;;14.10;99.90;;;;;;5157869;27;20039;-89
2023/06/28 00:28:03;;;;;;;6.93;2.45;;;14.10;99.90;;;;;;5140180;27;20072;-88
2023/06/28 00:30:31;;;;;;;8.48;2.28;;;14.00;99.90;;;;;;5140410;27;20031;-88
2023/06/28 00:32:58;;;;;;;7.40;2.25;;;14.00;99.90;;;;;;5140202;27;20514;-88
2023/06/28 00:35:25;;;;;;;7.18;2.30;;;14.00;99.90;;;;;;5123135;27;20042;-88
2023/06/28 00:37:51;;;;;;;6.30;2.30;;;13.90;99.90;;;;;;5140278;27;20487;-89
2023/06/28 00:40:18;;;;;;;6.68;2.42;;;13.90;99.90;;;;;;5123057;27;20455;-88
2023/06/28 00:42:45;;;;;;;6.93;2.40;;;13.90;99.90;;;;;;5119652;27;20062;-88
2023/06/28 00:45:13;;;;;;;7.57;2.30;;;13.80;99.90;;;;;;5119769;27;20540;-89
2023/06/28 00:47:42;;;;;;;9.50;2.65;;;13.80;99.90;;;;;;5153371;27;20126;-89
2023/06/28 00:50:09;;;;;;;9.13;2.88;;;13.70;99.90;;;;;;5158029;27;20126;-88
2023/06/28 00:52:36;;;;;;;5.82;2.33;;;13.80;99.90;;;;;;5156709;27;20050;-88
2023/06/28 00:55:04;;;;;;;10.73;2.80;;;13.70;99.90;;;;;;5156790;27;20129;-88
2023/06/28 00:57:31;;;;;;;11.35;2.85;;;13.70;99.90;;;;;;5139986;27;20046;-88
2023/06/28 00:59:58;;;;;;;8.52;2.53;;;13.60;99.90;;;;;;5174052;27;20042;-88
2023/06/28 01:02:26;;;;;;;8.77;2.80;;;13.60;99.90;;;;;;5140923;27;20121;-88
2023/06/28 01:04:57;;;;;;;6.10;2.47;;;13.60;99.90;;;;;;5157293;27;20034;-88
2023/06/28 01:07:28;;;;;;;8.55;2.80;;;13.60;99.90;;;;;;5156062;27;20406;-88
2023/06/28 01:09:57;;;;;;;7.43;2.53;;;13.60;99.90;;;;;;5173979;27;20471;-88
2023/06/28 01:12:25;;;;;;;5.65;2.75;;;13.60;99.90;;;;;;5173640;27;20864;-88
2023/06/28 01:14:52;;;;;;;7.15;2.55;;;13.60;99.90;;;;;;5173783;27;20072;-88
2023/06/28 01:17:19;;;;;;;5.72;2.75;;;13.60;99.90;;;;;;5140281;27;20046;-88
2023/06/28 01:19:46;;;;;;;9.10;3.17;;;13.60;99.90;;;;;;5157064;27;20031;-87
2023/06/28 01:22:13;;;;;;;10.35;3.40;;;13.60;99.90;;;;;;5156427;27;20027;-88
2023/06/28 01:24:41;;;;;;;10.30;2.53;;;13.60;99.90;;;;;;5173849;27;20074;-88
2023/06/28 01:27:11;;;;;;;6.65;2.92;;;13.60;99.90;;;;;;5156156;27;20083;-88
2023/06/28 01:29:38;;;;;;;12.00;3.35;;;13.60;99.90;;;;;;5156160;27;20038;-88
2023/06/28 01:32:06;;;;;;;8.02;3.10;;;13.60;99.90;;;;;;5139255;27;20034;-88
2023/06/28 01:34:32;;;;;;;8.52;2.85;;;13.60;99.90;;;;;;5156003;27;20039;-88
2023/06/28 01:37:01;;;;;;;7.45;2.92;;;13.60;99.90;;;;;;5190185;27;20130;-88
2023/06/28 01:39:31;;;;;;;8.80;3.30;;;13.60;99.90;;;;;;5173055;27;20051;-88
2023/06/28 01:42:00;;;;;;;9.30;3.22;;;13.60;99.90;;;;;;5173918;27;20039;-88
2023/06/28 01:44:27;;;;;;;10.30;3.00;;;13.60;99.90;;;;;;5176704;27;20133;-88
2023/06/28 01:46:54;;;;;;;7.57;3.05;;;13.60;99.90;;;;;;5176614;27;20034;-88
2023/06/28 01:49:21;;;;;;;10.73;2.90;;;13.60;99.90;;;;;;5176268;27;20121;-89
2023/06/28 01:51:48;;;;;;;7.85;3.00;;;13.70;99.90;;;;;;5159400;27;20046;-88
2023/06/28 01:54:15;;;;;;;9.55;3.33;;;13.70;99.90;;;;;;5158707;27;20075;-89
2023/06/28 01:56:42;;;;;;;7.00;3.60;;;13.70;99.90;;;;;;5176071;27;20072;-88
2023/06/28 01:59:08;;;;;;;11.00;2.88;;;13.70;99.90;;;;;;5176180;27;20038;-88
2023/06/28 02:01:35;;;;;;;7.72;3.00;;;13.60;99.90;;;;;;5142163;27;20121;-88
2023/06/28 02:04:02;;;;;;;11.02;3.60;;;13.60;99.90;;;;;;5142075;27;20482;-89
2023/06/28 02:06:29;;;;;;;7.07;3.58;;;13.60;99.90;;;;;;5142294;27;20443;-88
2023/06/28 02:08:55;;;;;;;7.60;3.28;;;13.60;99.90;;;;;;5159057;27;20035;-89
2023/06/28 02:11:22;;;;;;;9.00;3.40;;;13.60;99.90;;;;;;5141360;27;20129;-89
2023/06/28 02:13:49;;;;;;;8.55;3.60;;;13.70;99.90;;;;;;5142391;27;20041;-88
2023/06/28 02:16:16;;;;;;;10.05;3.85;;;13.70;99.90;;;;;;5158554;27;20120;-88
2023/06/28 02:18:45;;;;;;;13.30;4.13;;;13.70;99.90;;;;;;5142367;27;20157;-88
2023/06/28 02:21:12;;;;;;;10.60;4.00;;;13.70;99.90;;;;;;5142199;27;20034;-88
2023/06/28 02:23:38;;;;;;;6.35;3.60;;;13.70;99.90;;;;;;5142057;27;20046;-88
2023/06/28 02:26:05;;;;;;;11.10;3.58;;;13.70;99.90;;;;;;5158922;27;20113;-88
2023/06/28 02:28:32;;;;;;;8.30;3.42;;;13.70;99.90;;;;;;5158947;27;20034;-88
2023/06/28 02:30:59;;;;;;;9.55;3.42;;;13.70;99.90;;;;;;5176145;27;20049;-88
2023/06/28 02:33:26;;;;;;;9.82;3.63;;;13.80;99.90;;;;;;5141866;27;20117;-88
2023/06/28 02:35:52;;;;;;;8.18;3.38;;;13.80;99.90;;;;;;5158862;27;20038;-88
2023/06/28 02:38:19;;;;;;;8.75;3.83;;;13.80;99.90;;;;;;5141737;27;20149;-88
2023/06/28 02:40:46;;;;;;;10.43;3.45;;;13.90;99.90;;;;;;5141523;27;20038;-89
2023/06/28 02:43:13;;;;;;;8.52;3.60;;;13.90;99.90;;;;;;5141303;27;20160;-88
2023/06/28 02:45:40;;;;;;;12.43;3.88;;;13.90;99.90;;;;;;5141629;27;20057;-88
2023/06/28 02:48:06;;;;;;;13.15;3.95;;;13.90;99.90;;;;;;5141224;27;20034;-89
2023/06/28 02:50:33;;;;;;;11.00;3.83;;;13.90;99.90;;;;;;5140909;27;20101;-89
2023/06/28 02:53:03;;;;;;;11.13;3.90;;;13.90;99.90;;;;;;5158088;27;20034;-88
2023/06/28 02:55:30;;;;;;;7.13;3.90;;;14.00;99.90;;;;;;5141569;27;20401;-88
2023/06/28 02:57:56;;;;;;;10.38;4.03;;;13.90;99.90;;;;;;5158639;27;20035;-88
2023/06/28 03:00:23;;;;;;;10.13;3.22;;;13.90;99.90;;;;;;5141261;27;20114;-88
2023/06/28 03:02:50;;;;;;;9.93;3.40;;;13.90;99.90;;;;;;5141312;27;20041;-88
2023/06/28 03:05:16;;;;;;;10.27;3.92;;;13.90;99.90;;;;;;5157497;27;20034;-88
2023/06/28 03:07:43;;;;;;;10.80;4.35;;;13.90;99.90;;;;;;5140889;27;20034;-88
2023/06/28 03:10:10;;;;;;;11.40;3.33;;;14.00;99.90;;;;;;5158069;27;20097;-88
2023/06/28 03:12:36;;;;;;;10.77;3.60;;;14.00;99.90;;;;;;5139194;27;20046;-89
2023/06/28 03:15:03;;;;;;;9.73;4.07;;;14.00;99.90;;;;;;5141604;27;20079;-89
2023/06/28 03:17:30;;;;;;;10.18;3.65;;;14.00;99.90;;;;;;5175980;27;20042;-88
2023/06/28 03:19:57;;;;;;;9.95;3.40;;;14.00;99.90;;;;;;5158361;27;20041;-89
2023/06/28 03:22:23;;;;;;;12.10;3.75;;;14.00;99.90;;;;;;5157911;27;20038;-89
2023/06/28 03:24:51;;;;;;;8.98;3.63;;;14.00;99.90;;;;;;5158542;27;20031;-89
2023/06/28 03:27:19;;;;;;;7.18;3.65;;;14.00;99.90;;;;;;5158570;27;20034;-88
2023/06/28 03:29:45;;;;;;;13.30;4.32;;;14.00;99.90;;;;;;5140924;27;20406;-89
2023/06/28 03:32:12;;;;;;;11.45;4.30;;;14.10;99.90;;;;;;5162342;27;20125;-88
2023/06/28 03:34:39;;;;;;;8.00;3.83;;;14.00;99.90;;;;;;5144839;27;20041;-88
2023/06/28 03:37:07;;;;;;;9.02;3.78;;;14.10;99.90;;;;;;5145186;27;20099;-89
2023/06/28 03:39:34;;;;;;;8.93;3.90;;;14.10;99.90;;;;;;5161825;27;20042;-88
2023/06/28 03:42:01;;;;;;;12.75;3.92;;;14.10;99.90;;;;;;5144946;27;20041;-88
2023/06/28 03:44:28;;;;;;;7.22;3.70;;;14.10;99.90;;;;;;5157948;27;20051;-88
2023/06/28 03:46:54;;;;;;;10.80;3.78;;;14.10;99.90;;;;;;5141090;27;20043;-88
2023/06/28 03:49:21;;;;;;;8.25;3.80;;;14.10;99.90;;;;;;5140886;27;20486;-88
2023/06/28 03:51:48;;;;;;;9.38;3.78;;;14.10;99.90;;;;;;5141101;27;20125;-88
2023/06/28 03:54:14;;;;;;;10.25;4.30;;;14.10;99.90;;;;;;5175487;27;20034;-88
2023/06/28 03:56:41;;;;;;;10.00;4.53;;;14.20;99.90;;;;;;5140905;27;20047;-88
2023/06/28 03:59:08;;;;;;;8.18;3.53;;;14.20;99.90;;;;;;5157917;27;20038;-88
2023/06/28 04:01:35;;;;;;;14.57;4.47;;;14.20;99.90;;;;;;5157224;27;20035;-88
2023/06/28 04:04:02;;;;;;;10.13;3.92;;;14.20;99.90;;;;;;5141884;27;20042;-88
2023/06/28 04:06:29;;;;;;;8.63;3.70;;;14.20;99.90;;;;;;5143934;27;20486;-88
2023/06/28 04:08:56;;;;;;;8.18;3.63;;;14.20;99.90;;;;;;5161252;27;20089;-88
2023/06/28 04:11:23;;;;;;;9.88;3.60;;;14.30;99.90;;;;;;5144211;27;20038;-88
2023/06/28 04:13:49;;;;;;;10.73;3.88;;;14.20;99.90;;;;;;5178416;27;20038;-88
2023/06/28 04:16:16;;;;;;;10.25;3.80;;;14.30;99.90;;;;;;5157477;27;20066;-89
2023/06/28 04:18:43;;;;;;;10.25;4.40;;;14.30;99.90;;;;;;5157135;27;20582;-88
2023/06/28 04:21:09;;;;;;;8.88;3.88;;;14.40;99.90;;;;;;5140631;27;20074;-89
2023/06/28 04:23:38;;;;;;;8.88;3.70;;;14.40;99.90;;;;;;5140508;27;20473;-88
2023/06/28 04:26:05;;;;;;;10.43;4.22;;;14.50;99.90;;;;;;5157290;27;20031;-89
2023/06/28 04:28:31;;;;;;;10.05;4.18;;;14.50;99.90;;;;;;5140430;27;20077;-88
2023/06/28 04:30:58;;;;;;;11.93;3.38;;;14.60;99.90;;;;;;5140291;27;20070;-88
2023/06/28 04:33:29;;;;;;;9.20;3.70;;;14.60;99.90;;;;;;5140489;27;20687;-88
2023/06/28 04:35:57;;;;;;;11.25;3.67;;;14.60;99.90;;;;;;5140557;27;20106;-88
2023/06/28 04:38:24;;;;;;;10.85;3.67;;;14.50;99.90;;;;;;5140460;27;20513;-88
2023/06/28 04:40:50;;;;;;;8.73;4.30;;;14.60;99.90;;;;;;5139199;27;20031;-88
2023/06/28 04:43:17;;;;;;;12.73;4.05;;;14.60;99.90;;;;;;5157109;27;20061;-88
2023/06/28 04:45:44;;;;;;;7.65;3.55;;;14.60;99.90;;;;;;5141326;27;20559;-88
2023/06/28 04:48:10;;;;;;;9.50;4.00;;;14.60;99.90;;;;;;5143838;27;20036;-88
2023/06/28 04:50:38;;;;;;;10.27;3.70;;;14.70;99.90;;;;;;5160156;27;20042;-88
2023/06/28 04:53:05;;;;;;;12.40;4.20;;;14.20;99.90;;;;;;5177840;27;20045;-88
2023/06/28 04:55:34;;;;;;;10.45;4.22;;;14.70;99.90;;;;;;5160175;27;20125;-88
2023/06/28 04:58:06;;;;;;;7.65;4.07;;;14.60;99.90;;;;;;5177543;27;20038;-88
2023/06/28 05:00:33;;;;;;;11.18;3.80;;;14.60;99.90;;;;;;5177207;27;20038;-88
2023/06/28 05:03:00;;;;;;;8.60;3.58;;;14.70;99.90;;;;;;5194379;27;20402;-88
2023/06/28 05:05:27;;;;;;;8.38;3.40;;;14.70;99.90;;;;;;5177247;27;20041;-88
2023/06/28 05:07:54;;;;;;;8.20;3.78;;;14.70;99.90;;;;;;5159845;27;20042;-88
2023/06/28 05:10:23;;;;;;;9.02;3.83;;;14.70;99.90;;;;;;5160326;27;20035;-88
2023/06/28 05:12:51;;;;;;;10.88;4.20;;;14.80;99.90;;;;;;5143233;27;20105;-88
2023/06/28 05:15:19;;;;;;;11.70;4.10;;;14.80;99.90;;;;;;5177197;27;20097;-88
2023/06/28 05:17:46;;;;;;;11.07;3.80;;;14.80;99.90;;;;;;5176762;27;20045;-88
2023/06/28 05:20:13;;;;;;;9.25;3.92;;;14.90;99.90;;;;;;5160352;27;20034;-88
2023/06/28 05:22:49;;;;;;;7.75;3.47;;;14.90;99.90;;;;;;5159913;27;20398;-88
2023/06/28 05:25:16;;;;;;;10.25;3.70;;;14.90;99.90;;;;;;5159833;27;20505;-88
2023/06/28 05:27:43;;;;;;;11.68;4.10;;;14.90;99.90;;;;;;5164218;27;20030;-88
2023/06/28 05:30:10;;;;;;;10.13;3.50;;;14.90;99.90;;;;;;5139513;27;20031;-88
2023/06/28 05:32:38;;;;;;;7.50;3.55;;;14.90;99.90;;;;;;5139112;27;20038;-88
2023/06/28 05:35:05;;;;;;;7.05;3.70;;;14.90;99.90;;;;;;5139242;27;20085;-88
2023/06/28 05:37:32;;;;;;;7.78;3.75;;;15.00;99.90;;;;;;5139729;27;20379;-88
2023/06/28 05:39:58;;;;;;;11.18;4.20;;;14.90;99.90;;;;;;5155626;27;20035;-88
2023/06/28 05:42:25;;;;;;;8.60;3.38;;;15.00;99.90;;;;;;5155518;27;20062;-88
2023/06/28 05:44:52;;;;;;;8.75;3.70;;;15.00;99.90;;;;;;5172776;27;20535;-88
2023/06/28 05:47:19;;;;;;;8.70;3.50;;;15.00;99.90;;;;;;5159220;27;20042;-88
2023/06/28 05:49:46;;;;;;;12.02;3.38;;;15.10;99.90;;;;;;5176298;27;20536;-88
2023/06/28 05:52:12;;;;;;;7.95;3.67;;;15.10;99.90;;;;;;5142187;27;20499;-88
2023/06/28 05:54:39;;;;;;;9.23;3.20;;;15.10;99.90;;;;;;5141992;27;20557;-88
2023/06/28 05:57:06;;;;;;;8.25;3.15;;;15.20;99.90;;;;;;5155870;27;20086;-88
2023/06/28 05:59:33;;;;;;;14.93;4.40;;;15.20;99.90;;;;;;5138811;27;20179;-88
2023/06/28 06:02:00;;;;;;;8.45;3.45;;;15.20;99.90;;;;;;5154984;27;20175;-88
2023/06/28 06:04:26;;;;;;;8.55;3.50;;;15.20;99.90;;;;;;5138385;27;20466;-88
2023/06/28 06:06:53;;;;;;;7.57;3.08;;;15.30;99.90;;;;;;5148134;27;20041;-88
2023/06/28 06:09:20;;;;;;;7.68;3.20;;;15.30;99.90;;;;;;5142402;27;20040;-88
2023/06/28 06:11:47;;;;;;;7.82;3.17;;;15.40;99.90;;;;;;5175891;27;20094;-88
2023/06/28 06:14:15;;;;;;;11.82;3.50;;;15.40;99.90;;;;;;5159233;27;20050;-88
2023/06/28 06:16:42;;;;;;;9.13;3.30;;;15.40;99.90;;;;;;5137833;27;20042;-87
2023/06/28 06:19:08;;;;;;;5.18;3.00;;;15.50;99.90;;;;;;5120605;27;20042;-87
2023/06/28 06:21:35;;;;;;;8.00;2.60;;;15.50;99.90;;;;;;5154732;27;20034;-86
2023/06/28 06:24:07;;;;;;;11.52;3.03;;;15.50;99.90;;;;;;5120482;27;20039;-86
2023/06/28 06:26:35;;;;;;;7.47;2.80;;;15.50;99.90;;;;;;5122118;27;20039;-86
2023/06/28 06:29:02;;;;;;;7.13;2.78;;;15.60;99.90;;;;;;5174820;27;20038;-86
2023/06/28 06:31:29;;;;;;;6.82;2.92;;;15.70;99.90;;;;;;5157979;27;20040;-86
2023/06/28 06:34:05;;;;;;;7.32;3.08;;;15.70;99.90;;;;;;5174876;27;20079;-86
2023/06/28 06:36:31;;;;;;;6.00;2.50;;;15.70;99.90;;;;;;5143542;27;20049;-86
2023/06/28 06:38:59;;;;;;;12.65;2.90;;;15.80;99.90;;;;;;5192171;27;20406;-86
2023/06/28 06:41:26;;;;;;;7.88;2.80;;;15.80;99.90;;;;;;5192339;27;20142;-86
2023/06/28 06:43:53;;;;;;;10.25;2.88;;;15.80;99.90;;;;;;5158400;27;20061;-86
2023/06/28 06:46:20;;;;;;;7.25;2.97;;;15.90;99.90;;;;;;5192130;27;20060;-86
2023/06/28 06:48:47;;;;;;;10.48;2.85;;;15.90;99.90;;;;;;5157808;27;20041;-85
2023/06/28 06:51:14;;;;;;;8.80;3.13;;;16.00;99.90;;;;;;5174812;27;20128;-86
2023/06/28 06:53:41;;;;;;;7.28;3.45;;;16.00;99.90;;;;;;5140451;27;20141;-85
2023/06/28 06:56:08;;;;;;;9.93;3.40;;;16.10;99.90;;;;;;5157519;27;20038;-85
2023/06/28 06:58:36;;;;;;;7.43;3.30;;;16.20;99.90;;;;;;5140208;27;20030;-85
2023/06/28 07:01:03;;;;;;;8.75;3.50;;;16.20;99.90;;;;;;5140319;27;20421;-85
2023/06/28 07:03:30;;;;;;;7.75;3.25;;;16.30;99.90;;;;;;5157165;27;20566;-84
2023/06/28 07:05:57;;;;;;;6.68;3.10;;;16.40;99.90;;;;;;5143882;27;20038;-84
2023/06/28 07:08:23;;;;;;;9.45;3.22;;;16.50;99.90;;;;;;5178894;27;20478;-85
2023/06/28 07:10:50;;;;;;;7.78;2.97;;;16.60;99.90;;;;;;5144353;27;20038;-86
2023/06/28 07:13:17;;;;;;;5.82;3.03;;;16.60;99.90;;;;;;5144851;27;20121;-86
2023/06/28 07:15:43;;;;;;;7.50;3.45;;;16.60;99.90;;;;;;5162059;27;20111;-86
2023/06/28 07:18:10;;;;;;;7.50;3.15;;;16.60;99.90;;;;;;5161404;27;20038;-86
2023/06/28 07:20:37;;;;;;;6.95;2.75;;;16.60;99.90;;;;;;5160202;27;20039;-86
2023/06/28 07:23:03;;;;;;;9.32;2.85;;;16.70;99.90;;;;;;5144034;27;20036;-86
2023/06/28 07:25:32;;;;;;;6.72;3.33;;;16.80;99.90;;;;;;5144625;27;20113;-86
2023/06/28 07:27:59;;;;;;;6.63;3.28;;;16.80;99.90;;;;;;5144634;27;20073;-86
2023/06/28 07:30:29;;;;;;;8.60;3.00;;;16.90;99.90;;;;;;5141085;27;20448;-86
2023/06/28 07:32:57;;;;;;;10.63;3.15;;;17.00;99.90;;;;;;5158030;27;20046;-86
2023/06/28 07:35:24;;;;;;;9.60;3.63;;;17.00;99.90;;;;;;5159139;27;20042;-85
2023/06/28 07:37:52;;;;;;;7.97;3.13;;;17.00;99.90;;;;;;5159766;27;20122;-84
2023/06/28 07:40:19;;;;;;;10.68;3.28;;;17.10;99.90;;;;;;5141652;27;20045;-84
2023/06/28 07:42:46;;;;;;;7.72;3.50;;;17.20;99.90;;;;;;5142741;27;20051;-86
2023/06/28 07:45:13;;;;;;;10.70;3.65;;;17.20;99.90;;;;;;5149983;27;20122;-86
2023/06/28 07:47:40;;;;;;;7.20;3.33;;;17.20;99.90;;;;;;5123378;27;20038;-86
2023/06/28 07:50:08;;;;;;;11.23;3.30;;;17.10;99.90;;;;;;5156678;27;20045;-86
2023/06/28 07:52:35;;;;;;;10.10;3.55;;;17.10;99.90;;;;;;5177468;27;20042;-85
2023/06/28 07:55:04;;;;;;;9.32;3.25;;;17.10;99.90;;;;;;5138981;27;20049;-86
2023/06/28 07:57:30;;;;;;;9.07;3.80;;;17.00;99.90;;;;;;5140412;27;20049;-85
2023/06/28 07:59:57;;;;;;;9.95;3.28;;;17.00;99.90;;;;;;5149847;27;20042;-85
2023/06/28 08:02:24;;;;;;;8.45;3.58;;;17.10;99.90;;;;;;5159425;27;20921;-85
2023/06/28 08:04:50;;;;;;;9.35;3.10;;;17.00;99.90;;;;;;5160719;27;20031;-86
2023/06/28 08:07:17;;;;;;;7.45;3.08;;;17.00;99.90;;;;;;5142783;27;20034;-86
2023/06/28 08:09:44;;;;;;;7.55;3.00;;;17.00;99.90;;;;;;5138979;27;20062;-86
2023/06/28 08:12:10;;;;;;;10.80;3.63;;;17.00;99.90;;;;;;5136398;27;20030;-86
2023/06/28 08:14:37;;;;;;;6.35;3.10;;;17.00;99.90;;;;;;5158406;27;20042;-86
2023/06/28 08:17:04;;;;;;;8.60;2.90;;;16.90;99.90;;;;;;5138117;27;20046;-86
2023/06/28 08:19:30;;;;;;;8.93;3.38;;;16.90;99.90;;;;;;5143059;27;20044;-86
2023/06/28 08:21:58;;;;;;;9.50;3.35;;;16.90;99.90;;;;;;5138991;27;20039;-86
2023/06/28 08:24:25;;;;;;;10.27;3.60;;;16.90;99.90;;;;;;5139245;27;20066;-86
2023/06/28 08:26:51;;;;;;;7.13;3.83;;;17.00;99.90;;;;;;5153415;27;20512;-86
2023/06/28 08:29:18;;;;;;;8.50;3.65;;;17.00;99.90;;;;;;5142351;27;20034;-86
2023/06/28 08:31:45;;;;;;;7.90;3.90;;;17.10;99.90;;;;;;5159893;27;20043;-86
2023/06/28 08:34:11;;;;;;;10.73;3.45;;;17.10;99.90;;;;;;5159745;27;20045;-86
2023/06/28 08:36:38;;;;;;;10.00;3.65;;;17.10;99.90;;;;;;5156546;27;20508;-86
2023/06/28 08:39:05;;;;;;;10.10;3.72;;;17.10;99.90;;;;;;5141383;27;20038;-86
2023/06/28 08:41:34;;;;;;;6.75;3.20;;;17.10;99.90;;;;;;5174096;27;20034;-86
2023/06/28 08:44:02;;;;;;;8.98;3.90;;;17.10;99.90;;;;;;5176194;27;20249;-85
2023/06/28 08:46:32;;;;;;;10.52;4.07;;;17.10;99.90;;;;;;5156053;27;20038;-86
2023/06/28 08:49:00;;;;;;;8.60;4.05;;;17.00;99.90;;;;;;5159576;27;20038;-86
2023/06/28 08:51:27;;;;;;;12.20;4.43;;;17.10;99.90;;;;;;5176425;27;20045;-85
2023/06/28 08:53:55;;;;;;;9.45;3.60;;;17.10;99.90;;;;;;5176669;27;20146;-86
2023/06/28 08:56:22;;;;;;;12.88;4.35;;;17.20;99.90;;;;;;5176866;27;20038;-87
2023/06/28 08:58:50;;;;;;;10.05;4.10;;;17.20;99.90;;;;;;5142899;27;20038;-86
2023/06/28 09:01:24;;;;;;;9.68;4.63;;;17.20;99.90;;;;;;5159190;27;20038;-86
2023/06/28 09:03:54;;;;;;;10.57;4.28;;;17.20;99.90;;;;;;5156171;27;20046;-86
2023/06/28 09:06:22;;;;;;;9.65;4.72;;;17.30;99.90;;;;;;5176455;27;20042;-86
2023/06/28 09:08:50;;;;;;;10.40;4.70;;;17.30;99.90;;;;;;5176769;27;20482;-85
2023/06/28 09:11:17;;;;;;;8.38;4.55;;;17.30;99.90;;;;;;5172177;27;20410;-84
2023/06/28 09:13:43;;;;;;;7.95;4.30;;;17.40;99.90;;;;;;5122046;27;20038;-85
2023/06/28 09:16:10;;;;;;;12.57;4.88;;;17.40;99.90;;;;;;5137354;27;20098;-85
2023/06/28 09:18:37;;;;;;;8.35;4.53;;;17.50;99.90;;;;;;5172577;27;20034;-85
2023/06/28 09:21:04;;;;;;;8.50;4.70;;;17.40;99.90;;;;;;5137846;27;20038;-85
2023/06/28 09:23:33;;;;;;;8.43;4.97;;;17.40;99.90;;;;;;5155293;27;20042;-85
2023/06/28 09:26:00;;;;;;;10.50;5.30;;;17.40;99.90;;;;;;5168191;27;20114;-85
2023/06/28 09:28:34;;;;;;;10.15;4.95;;;17.40;99.90;;;;;;5153793;27;20458;-85
2023/06/28 09:31:05;;;;;;;8.57;4.88;;;17.40;99.90;;;;;;5155219;27;20093;-85
2023/06/28 09:33:32;;;;;;;9.00;4.82;;;17.40;99.90;;;;;;5155386;27;20035;-85
2023/06/28 09:36:02;;;;;;;9.10;5.03;;;17.40;99.90;;;;;;5175562;27;20532;-85
2023/06/28 09:38:29;;;;;;;9.55;5.00;;;17.40;99.90;;;;;;5175202;27;20074;-85
2023/06/28 09:40:57;;;;;;;8.57;5.00;;;17.40;99.90;;;;;;5158078;27;20069;-85
2023/06/28 09:43:30;;;;;;;12.77;5.32;;;17.40;99.90;;;;;;5144676;27;20053;-85
2023/06/28 09:46:08;;;;;;;8.40;5.03;;;17.40;99.90;;;;;;5175524;27;20038;-84
2023/06/28 09:48:36;;;;;;;11.40;5.10;;;17.40;99.90;;;;;;5175181;27;20026;-84
2023/06/28 09:51:07;;;;;;;12.25;5.72;;;17.30;99.90;;;;;;5174805;27;20038;-85
2023/06/28 09:53:45;;;;;;;12.73;5.00;;;17.40;99.90;;;;;;5174794;27;20565;-84
2023/06/28 09:56:12;;;;;;;14.50;5.20;;;17.40;99.90;;;;;;5159530;27;20111;-85
2023/06/28 09:58:39;;;;;;;13.70;5.50;;;17.40;99.90;;;;;;5158464;27;20038;-85
2023/06/28 10:01:06;;;;;;;9.82;5.28;;;17.50;99.90;;;;;;5157330;27;20045;-85
2023/06/28 10:03:33;;;;;;;11.80;5.72;;;17.60;99.90;;;;;;5141522;27;20034;-85
2023/06/28 10:06:01;;;;;;;9.52;5.40;;;17.70;99.90;;;;;;5157869;27;20038;-85
2023/06/28 10:08:28;;;;;;;9.60;5.40;;;17.70;99.90;;;;;;5157499;27;20031;-85
2023/06/28 10:10:55;;;;;;;10.55;5.10;;;17.80;99.90;;;;;;5137330;27;20043;-85
2023/06/28 10:13:26;;;;;;;11.13;5.53;;;17.80;99.90;;;;;;5137396;27;20039;-85
2023/06/28 10:16:06;;;;;;;8.48;5.00;;;17.80;99.90;;;;;;5154249;27;20065;-85
2023/06/28 10:18:34;;;;;;;9.35;5.65;;;17.80;99.90;;;;;;5154264;27;20030;-85
2023/06/28 10:21:05;;;;;;;9.35;5.03;;;17.90;99.90;;;;;;5136923;27;20091;-84
2023/06/28 10:23:35;;;;;;;9.15;5.30;;;17.90;99.90;;;;;;5158274;27;20046;-84
2023/06/28 10:26:03;;;;;;;10.05;5.35;;;17.90;99.90;;;;;;5176342;27;20042;-85
2023/06/28 10:28:31;;;;;;;9.10;4.90;;;17.90;99.90;;;;;;5140981;27;20038;-84
2023/06/28 10:30:58;;;;;;;8.30;5.05;;;17.90;99.90;;;;;;5174845;27;20034;-85
2023/06/28 10:33:27;;;;;;;8.23;4.85;;;17.80;99.90;;;;;;5157482;27;20046;-85
2023/06/28 10:35:55;;;;;;;9.65;4.88;;;17.90;99.90;;;;;;5174809;27;20124;-86
2023/06/28 10:38:23;;;;;;;7.68;5.00;;;17.90;99.90;;;;;;5157401;27;20046;-85
2023/06/28 10:40:50;;;;;;;8.88;5.03;;;18.00;99.90;;;;;;5136746;27;20038;-85
2023/06/28 10:43:24;;;;;;;10.35;5.10;;;18.00;99.90;;;;;;5149660;28;20100;-85
2023/06/28 10:45:52;;;;;;;10.05;5.43;;;18.00;99.90;;;;;;5151095;27;20074;-85
2023/06/28 10:48:25;;;;;;;9.32;5.15;;;18.00;99.90;;;;;;5136309;27;20085;-85
2023/06/28 10:50:58;;;;;;;10.25;5.25;;;18.10;99.90;;;;;;5170530;27;20042;-85
2023/06/28 10:53:26;;;;;;;8.75;4.75;;;18.10;99.90;;;;;;5152905;27;20107;-84
2023/06/28 10:56:11;;;;;;;8.68;4.45;;;18.00;99.90;;;;;;5188127;27;20073;-84
2023/06/28 10:58:45;;;;;;;9.70;4.93;;;18.10;99.90;;;;;;5170556;27;20081;-85
2023/06/28 11:01:31;;;;;;;10.40;5.67;;;18.10;99.90;;;;;;5153142;27;20039;-85
2023/06/28 11:04:27;;;;;;;8.05;4.45;;;18.10;99.90;;;;;;5170243;27;20041;-85
2023/06/28 11:07:15;;;;;;;11.40;5.57;;;18.20;99.90;;;;;;5128263;28;20073;-85
2023/06/28 11:10:16;;;;;;;9.07;5.43;;;18.20;99.90;;;;;;5150182;28;20030;-85
2023/06/28 11:12:48;;;;;;;9.32;5.35;;;18.30;99.90;;;;;;5150123;28;20045;-85
2023/06/28 11:15:14;;;;;;;10.40;5.72;;;18.30;99.90;;;;;;5132730;28;20051;-85
2023/06/28 11:17:41;;;;;;;10.73;6.10;;;18.30;99.90;;;;;;5162888;27;20125;-85
2023/06/28 11:20:12;;;;;;;12.00;6.20;;;18.20;99.90;;;;;;5136505;27;20045;-85
2023/06/28 11:22:50;;;;;;;11.27;5.70;;;18.20;99.90;;;;;;5152854;27;20103;-86
2023/06/28 11:25:16;;;;;;;10.27;5.78;;;18.20;99.90;;;;;;5144573;27;20038;-85
2023/06/28 11:27:46;;;;;;;12.02;6.63;;;18.10;99.90;;;;;;5150715;27;20043;-85
2023/06/28 11:30:14;;;;;;;11.63;6.45;;;18.10;99.90;;;;;;5152915;27;20083;-85
2023/06/28 11:32:41;;;;;;;12.20;6.50;;;18.10;99.90;;;;;;5137274;27;20034;-85
2023/06/28 11:35:08;;;;;;;12.30;6.63;;;18.10;99.90;;;;;;5153239;27;20041;-87
2023/06/28 11:37:35;;;;;;;12.50;6.65;;;18.10;99.90;;;;;;5132291;28;20042;-86
2023/06/28 11:40:03;;;;;;;12.48;6.30;;;18.20;99.90;;;;;;5149710;28;20530;-86
2023/06/28 11:42:30;;;;;;;11.27;7.35;;;18.20;99.90;;;;;;5120622;27;20528;-85
2023/06/28 11:44:56;;;;;;;14.45;8.07;;;18.20;99.90;;;;;;5126819;27;20038;-85
2023/06/28 11:47:23;;;;;;;12.23;7.57;;;18.20;99.90;;;;;;5140012;27;20034;-85
2023/06/28 11:49:50;;;;;;;11.40;7.13;;;18.10;99.90;;;;;;5157086;27;20042;-85
2023/06/28 11:52:18;;;;;;;13.93;7.22;;;18.10;99.90;;;;;;5159102;27;20068;-85
2023/06/28 11:54:44;;;;;;;11.70;7.07;;;18.10;99.90;;;;;;5178507;27;20050;-85
2023/06/28 11:57:12;;;;;;;12.95;7.75;;;18.10;99.90;;;;;;5156944;27;20030;-85
2023/06/28 11:59:44;;;;;;;10.85;7.68;;;18.10;99.90;;;;;;5139725;27;20039;-86
2023/06/28 12:02:11;;;;;;;16.33;8.00;;;18.10;99.90;;;;;;5135945;27;20129;-85
2023/06/28 12:04:38;;;;;;;13.60;7.38;;;18.20;99.90;;;;;;5159843;27;20030;-85
2023/06/28 12:07:06;;;;;;;11.80;7.10;;;18.20;99.90;;;;;;5176433;27;20034;-86
2023/06/28 12:09:35;;;;;;;14.68;6.97;;;18.20;99.90;;;;;;5176926;27;20074;-85
2023/06/28 12:12:05;;;;;;;15.15;8.13;;;18.20;99.90;;;;;;5177093;27;20174;-85
2023/06/28 12:14:42;;;;;;;16.85;7.90;;;18.20;99.90;;;;;;5155885;27;20131;-85
2023/06/28 12:17:10;;;;;;;13.95;8.15;;;18.20;99.90;;;;;;5163664;27;20061;-85
2023/06/28 12:19:36;;;;;;;13.13;7.53;;;18.10;99.90;;;;;;5176909;27;20042;-85
2023/06/28 12:22:05;;;;;;;16.38;8.30;;;18.10;99.90;;;;;;5158793;27;20038;-85
2023/06/28 12:24:34;;;;;;;16.73;8.73;;;18.10;99.90;;;;;;5143014;27;20027;-85
2023/06/28 12:27:06;;;;;;;14.98;8.27;;;18.10;99.90;;;;;;5176958;27;20402;-85
2023/06/28 12:29:38;;;;;;;16.58;8.73;;;18.10;99.90;;;;;;5194241;27;20122;-85
2023/06/28 12:32:08;;;;;;;14.32;7.82;;;18.10;99.90;;;;;;5177277;27;20117;-85
2023/06/28 12:34:37;;;;;;;13.65;8.07;;;18.10;99.90;;;;;;5156784;27;20042;-85
2023/06/28 12:37:10;;;;;;;13.27;8.25;;;18.20;99.90;;;;;;5149454;27;20053;-85
2023/06/28 12:39:41;;;;;;;14.85;7.90;;;18.20;99.90;;;;;;5185073;27;20040;-85
2023/06/28 12:42:21;;;;;;;15.95;9.13;;;18.20;99.90;;;;;;5176892;27;20430;-85
2023/06/28 12:44:50;;;;;;;15.32;8.18;;;18.20;99.90;;;;;;5143247;27;20475;-86
2023/06/28 12:47:18;;;;;;;15.90;8.80;;;18.20;99.90;;;;;;5176372;27;20405;-85